Terminal Aerodrome Forecast
Issued by NWS

Home | Current Version | Previous Version | Text Only | Print | Product List | Glossary On
Versions: 1 2 3 4 5 6 7 8 9 10 11 12 13 14
000
FTUS46 KMTR 272300
TAFSNS
TAF
KSNS 272337Z 2800/2824 27014KT P6SM SKC
     FM280200 28008KT P6SM SKC
     FM280600 VRB03KT P6SM BKN010
     FM281800 29006KT P6SM SKC
     FM282100 28014KT P6SM SKC=

USA.gov is the U.S. government's official web portal to all federal, state and local government web resources and services.